Time;durP1;ratioP1;P1;durP2;ratioP2;P2;SDS_P1;SDS_P2;PMS_P1;PMS_P2;Temp;Humidity;BMP_temperature;BMP_pressure;BME280_temperature;BME280_humidity;BME280_pressure;Samples;Min_cycle;Max_cycle;Signal;HPM_P1;HPM_P2
2021/01/20 00:01:41;;;;;;;6.53;2.67;;;1.40;99.90;;;;;;1908131;75;21128;-75
2021/01/20 00:04:07;;;;;;;3.12;2.15;;;1.30;99.90;;;;;;1908246;75;21156;-75
2021/01/20 00:06:33;;;;;;;4.10;2.25;;;1.20;99.90;;;;;;1908065;74;21053;-74
2021/01/20 00:08:59;;;;;;;5.30;2.15;;;1.20;99.90;;;;;;1908148;74;21114;-72
2021/01/20 00:11:25;;;;;;;1.98;1.82;;;1.20;99.90;;;;;;1908032;75;21062;-72
2021/01/20 00:13:51;;;;;;;3.67;2.02;;;1.00;99.90;;;;;;1908037;74;21050;-73
2021/01/20 00:16:18;;;;;;;4.35;1.95;;;1.10;99.90;;;;;;1908010;75;21050;-74
2021/01/20 00:18:44;;;;;;;2.37;1.82;;;1.00;99.90;;;;;;1908045;75;21046;-72
2021/01/20 00:21:10;;;;;;;2.33;1.70;;;0.80;99.90;;;;;;1908102;75;21132;-72
2021/01/20 00:23:36;;;;;;;2.77;1.87;;;0.80;99.90;;;;;;1908064;75;21066;-72
2021/01/20 00:26:02;;;;;;;3.37;2.05;;;0.70;99.90;;;;;;1908012;75;21051;-74
2021/01/20 00:28:28;;;;;;;3.37;2.10;;;0.80;99.90;;;;;;1908032;75;21463;-74
2021/01/20 00:30:56;;;;;;;8.25;2.52;;;0.80;99.90;;;;;;1908018;75;21442;-73
2021/01/20 00:33:22;;;;;;;3.42;2.60;;;0.90;99.90;;;;;;1908035;75;21105;-74
2021/01/20 00:35:48;;;;;;;10.43;2.62;;;0.80;99.90;;;;;;1908156;75;21061;-73
2021/01/20 00:38:14;;;;;;;4.08;2.40;;;0.70;99.90;;;;;;1908050;74;21524;-73
2021/01/20 00:40:41;;;;;;;5.55;2.75;;;0.70;99.90;;;;;;1907986;75;21551;-73
2021/01/20 00:43:07;;;;;;;6.30;2.42;;;0.70;99.90;;;;;;1908016;75;21482;-73
2021/01/20 00:45:33;;;;;;;3.65;2.35;;;0.70;99.90;;;;;;1907988;75;21116;-73
2021/01/20 00:47:59;;;;;;;4.33;2.65;;;0.60;99.90;;;;;;1908028;75;21031;-72
2021/01/20 00:50:25;;;;;;;5.70;2.72;;;0.70;99.90;;;;;;1908019;75;21093;-72
2021/01/20 00:52:51;;;;;;;3.80;2.53;;;0.60;99.90;;;;;;1908038;75;21054;-74
2021/01/20 00:55:17;;;;;;;5.75;3.15;;;0.60;99.90;;;;;;1908036;74;21030;-73
2021/01/20 00:57:43;;;;;;;5.83;2.67;;;0.60;99.90;;;;;;1908135;75;21062;-72
2021/01/20 01:00:10;;;;;;;7.40;3.62;;;0.60;99.90;;;;;;1908200;75;21046;-72
2021/01/20 01:02:36;;;;;;;4.85;3.08;;;0.50;99.90;;;;;;1907883;75;21131;-73
2021/01/20 01:05:03;;;;;;;4.12;2.85;;;0.40;99.90;;;;;;1908190;75;21505;-73
2021/01/20 01:07:29;;;;;;;8.55;3.15;;;0.40;99.90;;;;;;1908010;75;21466;-72
2021/01/20 01:09:56;;;;;;;5.70;3.10;;;0.30;99.90;;;;;;1907977;74;21058;-73
2021/01/20 01:12:22;;;;;;;4.30;2.52;;;0.20;99.90;;;;;;1907907;74;21051;-72
2021/01/20 01:14:48;;;;;;;4.37;3.00;;;0.20;99.90;;;;;;1908085;75;21031;-73
2021/01/20 01:17:14;;;;;;;5.83;3.30;;;0.30;99.90;;;;;;1907880;75;21048;-73
2021/01/20 01:19:40;;;;;;;4.92;2.75;;;0.30;99.90;;;;;;1908109;74;21127;-74
2021/01/20 01:22:06;;;;;;;4.20;2.55;;;0.30;99.90;;;;;;1908323;74;21192;-73
2021/01/20 01:24:32;;;;;;;5.78;3.22;;;0.30;99.90;;;;;;1908225;75;21053;-74
2021/01/20 01:26:58;;;;;;;5.03;2.42;;;0.30;99.90;;;;;;1908030;74;21065;-73
2021/01/20 01:29:24;;;;;;;6.50;2.87;;;0.20;99.90;;;;;;1907891;74;21132;-73
2021/01/20 01:31:51;;;;;;;6.53;3.12;;;0.10;99.90;;;;;;1914042;75;21074;-73
2021/01/20 01:34:17;;;;;;;9.58;3.10;;;0.10;99.90;;;;;;1920595;75;21034;-73
2021/01/20 01:36:43;;;;;;;3.12;2.35;;;0.00;99.90;;;;;;1917799;75;21412;-72
2021/01/20 01:39:09;;;;;;;8.83;2.80;;;0.10;99.90;;;;;;1907993;75;21518;-73
2021/01/20 01:41:35;;;;;;;2.40;1.98;;;0.10;99.90;;;;;;1908063;75;21175;-73
2021/01/20 01:44:01;;;;;;;4.95;2.62;;;0.00;99.90;;;;;;1907903;74;21056;-73
2021/01/20 01:46:28;;;;;;;6.55;2.27;;;0.10;99.90;;;;;;1908216;75;21027;-74
2021/01/20 01:48:54;;;;;;;4.37;2.60;;;0.00;99.90;;;;;;1912336;74;21061;-73
2021/01/20 01:51:20;;;;;;;6.90;2.60;;;0.10;99.90;;;;;;1908187;75;21035;-73
2021/01/20 01:53:46;;;;;;;5.00;2.22;;;0.10;99.90;;;;;;1907944;74;21054;-72
2021/01/20 01:56:12;;;;;;;3.00;1.90;;;0.10;99.90;;;;;;1907922;74;21112;-72
2021/01/20 01:58:38;;;;;;;3.47;1.80;;;0.00;99.90;;;;;;1907802;75;21054;-73
2021/01/20 02:01:04;;;;;;;3.08;2.33;;;0.10;99.90;;;;;;1907990;74;21548;-73
2021/01/20 02:03:30;;;;;;;3.83;1.80;;;0.20;99.90;;;;;;1907972;75;21493;-74
2021/01/20 02:05:57;;;;;;;3.17;1.90;;;0.00;99.90;;;;;;1908108;75;21470;-73
2021/01/20 02:08:23;;;;;;;2.25;1.47;;;-0.10;99.90;;;;;;1907877;75;21027;-73
2021/01/20 02:10:49;;;;;;;5.35;1.47;;;0.00;99.90;;;;;;1908043;75;21050;-73
2021/01/20 02:13:16;;;;;;;3.27;1.65;;;0.00;99.90;;;;;;1907876;75;21042;-72
2021/01/20 02:15:42;;;;;;;1.95;1.50;;;0.00;99.90;;;;;;1907877;75;21081;-73
2021/01/20 02:18:09;;;;;;;4.55;1.50;;;0.10;99.90;;;;;;1908093;75;21127;-73
2021/01/20 02:20:35;;;;;;;2.20;1.67;;;0.00;99.90;;;;;;1907921;75;21128;-73
2021/01/20 02:23:01;;;;;;;2.60;1.62;;;0.00;99.90;;;;;;1908057;75;21058;-73
2021/01/20 02:25:27;;;;;;;2.95;2.10;;;0.00;99.90;;;;;;1907878;75;21119;-72
2021/01/20 02:27:53;;;;;;;3.37;1.55;;;-0.10;99.90;;;;;;1908055;75;21145;-73
2021/01/20 02:30:19;;;;;;;3.30;2.10;;;-0.10;99.90;;;;;;1907861;74;21042;-73
2021/01/20 02:32:46;;;;;;;2.75;1.37;;;-0.10;99.90;;;;;;1908043;75;21093;-73
2021/01/20 02:35:12;;;;;;;2.27;1.90;;;-0.10;99.90;;;;;;1907896;75;21132;-73
2021/01/20 02:37:38;;;;;;;1.20;1.12;;;-0.20;99.90;;;;;;1908095;75;21023;-73
2021/01/20 02:40:04;;;;;;;2.70;1.60;;;-0.20;99.90;;;;;;1907994;75;21062;-73
2021/01/20 02:42:30;;;;;;;1.20;1.10;;;-0.20;99.90;;;;;;1907925;75;21050;-74
2021/01/20 02:44:56;;;;;;;1.72;1.30;;;-0.20;99.90;;;;;;1907934;75;21516;-73
2021/01/20 02:47:22;;;;;;;2.62;1.50;;;-0.10;99.90;;;;;;1907967;75;21447;-72
2021/01/20 02:49:48;;;;;;;2.17;1.10;;;-0.10;99.90;;;;;;1908071;75;21456;-73
2021/01/20 02:52:14;;;;;;;4.15;1.60;;;-0.20;99.90;;;;;;1907891;74;21481;-74
2021/01/20 02:54:41;;;;;;;3.20;1.72;;;-0.20;99.90;;;;;;1908216;74;21119;-72
2021/01/20 02:57:07;;;;;;;5.28;1.60;;;-0.20;99.90;;;;;;1908734;74;21049;-73
2021/01/20 02:59:33;;;;;;;2.22;1.72;;;-0.30;99.90;;;;;;1910863;75;21028;-73
2021/01/20 03:01:59;;;;;;;1.70;1.60;;;-0.30;99.90;;;;;;1907897;75;21127;-73
2021/01/20 03:04:27;;;;;;;2.10;1.90;;;-0.30;99.90;;;;;;1908054;75;21046;-73
2021/01/20 03:06:53;;;;;;;3.75;1.87;;;-0.20;99.90;;;;;;1908026;75;21469;-72
2021/01/20 03:09:19;;;;;;;6.67;1.60;;;-0.20;99.90;;;;;;1907846;75;21510;-73
2021/01/20 03:11:45;;;;;;;2.35;1.98;;;-0.20;99.90;;;;;;1908024;75;21103;-73
2021/01/20 03:14:11;;;;;;;6.58;1.67;;;-0.30;99.90;;;;;;1907988;74;21079;-72
2021/01/20 03:16:37;;;;;;;2.05;1.57;;;-0.30;99.90;;;;;;1907930;74;21050;-73
2021/01/20 03:19:04;;;;;;;4.15;1.37;;;-0.40;99.90;;;;;;1907938;75;21055;-73
2021/01/20 03:21:30;;;;;;;2.75;1.82;;;-0.40;99.90;;;;;;1907902;75;21038;-73
2021/01/20 03:23:56;;;;;;;1.60;1.35;;;-0.40;99.90;;;;;;1907960;74;21115;-73
2021/01/20 03:26:23;;;;;;;2.42;1.25;;;-0.30;99.90;;;;;;1907915;75;21135;-73
2021/01/20 03:28:49;;;;;;;4.60;1.80;;;-0.30;99.90;;;;;;1907902;75;21478;-72
2021/01/20 03:31:15;;;;;;;5.33;1.60;;;-0.20;99.90;;;;;;1907934;74;21454;-73
2021/01/20 03:33:41;;;;;;;5.62;1.90;;;-0.30;99.90;;;;;;1908116;74;21423;-73
2021/01/20 03:36:07;;;;;;;4.08;1.90;;;-0.30;99.90;;;;;;1908045;75;21485;-73
2021/01/20 03:38:33;;;;;;;3.10;1.82;;;-0.20;99.90;;;;;;1908155;75;21560;-75
2021/01/20 03:40:59;;;;;;;3.15;2.08;;;-0.20;99.90;;;;;;1907895;75;21127;-74
2021/01/20 03:43:26;;;;;;;3.02;2.10;;;-0.20;99.90;;;;;;1908021;74;21152;-73
2021/01/20 03:45:52;;;;;;;5.42;2.60;;;-0.20;99.90;;;;;;1908046;75;21045;-73
2021/01/20 03:48:18;;;;;;;3.92;2.20;;;-0.20;99.90;;;;;;1908043;75;21506;-72
2021/01/20 03:50:44;;;;;;;5.25;2.37;;;-0.40;99.90;;;;;;1907916;75;21450;-72
2021/01/20 03:53:10;;;;;;;4.78;2.33;;;-0.30;99.90;;;;;;1908106;75;21481;-73
2021/01/20 03:55:36;;;;;;;4.47;2.47;;;-0.40;99.90;;;;;;1908134;75;21484;-73
2021/01/20 03:58:02;;;;;;;4.40;2.55;;;-0.40;99.90;;;;;;1907884;74;21493;-73
2021/01/20 04:00:28;;;;;;;8.18;2.33;;;-0.40;99.90;;;;;;1908147;74;21484;-73
2021/01/20 04:02:55;;;;;;;4.97;2.60;;;-0.30;99.90;;;;;;1912335;74;21492;-73
2021/01/20 04:05:21;;;;;;;4.05;2.15;;;-0.50;99.90;;;;;;1908140;75;21470;-72
2021/01/20 04:07:47;;;;;;;4.15;2.30;;;-0.50;99.90;;;;;;1910242;74;21066;-73
2021/01/20 04:10:13;;;;;;;3.02;2.27;;;-0.40;99.90;;;;;;1908165;75;21031;-74
2021/01/20 04:12:39;;;;;;;4.28;2.42;;;-0.50;99.90;;;;;;1907975;75;21119;-73
2021/01/20 04:15:05;;;;;;;8.05;2.58;;;-0.50;99.90;;;;;;1907926;74;21026;-72
2021/01/20 04:17:31;;;;;;;2.95;2.30;;;-0.50;99.90;;;;;;1908236;75;21071;-73
2021/01/20 04:19:57;;;;;;;6.20;2.42;;;-0.60;99.90;;;;;;1908011;75;21148;-74
2021/01/20 04:22:24;;;;;;;8.30;3.22;;;-0.50;99.90;;;;;;1908131;74;21116;-74
2021/01/20 04:24:50;;;;;;;5.42;2.98;;;-0.50;99.90;;;;;;1908163;75;21050;-72
2021/01/20 04:27:16;;;;;;;5.42;2.83;;;-0.50;99.90;;;;;;1908045;75;21097;-72
2021/01/20 04:29:42;;;;;;;6.33;2.40;;;-0.50;99.90;;;;;;1908097;75;21465;-73
2021/01/20 04:32:08;;;;;;;4.83;2.20;;;-0.50;99.90;;;;;;1908026;75;21572;-72
2021/01/20 04:34:34;;;;;;;6.92;2.85;;;-0.60;99.90;;;;;;1908038;75;21398;-73
2021/01/20 04:37:00;;;;;;;4.15;2.37;;;-0.50;99.90;;;;;;1908044;75;21546;-72
2021/01/20 04:39:26;;;;;;;2.67;1.92;;;-0.60;99.90;;;;;;1907993;75;21232;-73
2021/01/20 04:41:53;;;;;;;4.87;2.40;;;-0.60;99.90;;;;;;1908115;74;21050;-73
2021/01/20 04:44:19;;;;;;;9.45;2.98;;;-0.60;99.90;;;;;;1908021;75;21026;-72
2021/01/20 04:46:45;;;;;;;4.50;2.17;;;-0.60;99.90;;;;;;1908058;75;21053;-73
2021/01/20 04:49:14;;;;;;;3.77;2.40;;;-0.50;99.90;;;;;;1907913;75;21022;-74
2021/01/20 04:51:39;;;;;;;5.92;2.00;;;-0.50;99.90;;;;;;1907843;75;21580;-73
2021/01/20 04:54:05;;;;;;;3.22;2.12;;;-0.60;99.90;;;;;;1907903;75;21109;-73
2021/01/20 04:56:31;;;;;;;5.12;2.27;;;-0.50;99.90;;;;;;1907938;75;21047;-73
2021/01/20 04:58:57;;;;;;;6.20;2.72;;;-0.50;99.90;;;;;;1907911;75;21066;-72
2021/01/20 05:01:24;;;;;;;2.22;1.75;;;-0.60;99.90;;;;;;1908067;75;21119;-73
2021/01/20 05:03:50;;;;;;;4.97;2.90;;;-0.50;99.90;;;;;;1908015;75;21525;-72
2021/01/20 05:06:16;;;;;;;2.62;2.22;;;-0.50;99.90;;;;;;1908053;75;21419;-72
2021/01/20 05:08:42;;;;;;;5.90;2.50;;;-0.40;99.90;;;;;;1907919;74;21446;-74
2021/01/20 05:11:08;;;;;;;4.67;2.45;;;-0.50;99.90;;;;;;1908107;75;21434;-74
2021/01/20 05:13:34;;;;;;;6.70;2.33;;;-0.50;99.90;;;;;;1907889;75;21046;-74
2021/01/20 05:16:00;;;;;;;4.72;2.80;;;-0.40;99.90;;;;;;1908139;75;21042;-74
2021/01/20 05:18:26;;;;;;;5.33;3.15;;;-0.50;99.90;;;;;;1907903;75;21155;-72
2021/01/20 05:20:53;;;;;;;4.50;2.95;;;-0.40;99.90;;;;;;1907904;75;21014;-74
2021/01/20 05:23:19;;;;;;;3.30;2.72;;;-0.40;99.90;;;;;;1908524;75;21031;-74
2021/01/20 05:25:45;;;;;;;4.67;2.70;;;-0.40;99.90;;;;;;1909911;74;21116;-72
2021/01/20 05:28:11;;;;;;;5.03;3.12;;;-0.40;99.90;;;;;;1909235;75;21092;-72
2021/01/20 05:30:37;;;;;;;7.78;3.58;;;-0.40;99.90;;;;;;1908212;75;21114;-72
2021/01/20 05:33:03;;;;;;;5.05;3.35;;;-0.40;99.90;;;;;;1908208;75;21070;-72
2021/01/20 05:35:29;;;;;;;5.10;3.27;;;-0.40;99.90;;;;;;1908206;74;21030;-72
2021/01/20 05:37:55;;;;;;;6.65;3.02;;;-0.40;99.90;;;;;;1907972;75;21484;-72
2021/01/20 05:40:22;;;;;;;10.03;2.92;;;-0.40;99.90;;;;;;1908096;74;21477;-72
2021/01/20 05:42:50;;;;;;;4.45;3.00;;;-0.30;99.90;;;;;;1907850;75;21502;-72
2021/01/20 05:45:17;;;;;;;4.22;2.40;;;-0.40;99.90;;;;;;1907867;75;21097;-72
2021/01/20 05:47:43;;;;;;;5.62;2.80;;;-0.20;99.90;;;;;;1908049;74;21062;-72
2021/01/20 05:50:09;;;;;;;10.00;3.37;;;-0.20;99.90;;;;;;1910826;74;21062;-73
2021/01/20 05:52:35;;;;;;;5.37;2.72;;;-0.20;99.90;;;;;;1912072;75;21065;-73
2021/01/20 05:55:01;;;;;;;5.97;3.15;;;-0.10;99.90;;;;;;1910256;74;21066;-71
2021/01/20 05:57:28;;;;;;;5.72;2.45;;;-0.10;99.90;;;;;;1907960;74;21066;-72
2021/01/20 05:59:54;;;;;;;3.52;2.95;;;0.00;99.90;;;;;;1907894;75;21039;-75
2021/01/20 06:02:21;;;;;;;5.97;2.92;;;0.00;99.90;;;;;;1908055;75;21054;-73
2021/01/20 06:04:48;;;;;;;8.13;3.33;;;0.10;99.90;;;;;;1907855;75;21178;-75
2021/01/20 06:07:14;;;;;;;5.70;3.17;;;0.20;99.90;;;;;;1910730;74;21046;-73
2021/01/20 06:09:40;;;;;;;4.50;3.27;;;0.10;99.90;;;;;;1911845;75;21053;-73
2021/01/20 06:12:06;;;;;;;3.30;2.58;;;0.20;99.90;;;;;;1912618;74;21059;-75
2021/01/20 06:14:32;;;;;;;5.08;3.40;;;0.20;99.90;;;;;;1908085;75;21026;-73
2021/01/20 06:16:58;;;;;;;5.03;3.17;;;0.30;99.90;;;;;;1910189;74;21054;-74
2021/01/20 06:19:24;;;;;;;9.95;4.00;;;0.30;99.90;;;;;;1907904;74;21062;-70
2021/01/20 06:21:51;;;;;;;10.35;3.75;;;0.20;99.90;;;;;;1907965;75;21030;-71
2021/01/20 06:24:17;;;;;;;9.03;3.22;;;0.30;99.90;;;;;;1907946;75;21101;-70
2021/01/20 06:26:43;;;;;;;10.80;3.62;;;0.40;99.90;;;;;;1907985;75;21050;-72
2021/01/20 06:29:09;;;;;;;6.97;3.80;;;0.30;99.90;;;;;;1907809;75;21058;-72
2021/01/20 06:31:35;;;;;;;6.50;3.85;;;0.30;99.90;;;;;;1907999;75;21061;-71
2021/01/20 06:34:01;;;;;;;6.45;3.72;;;0.40;99.90;;;;;;1907951;74;21501;-72
2021/01/20 06:36:27;;;;;;;8.30;4.03;;;0.30;99.90;;;;;;1907950;74;21490;-70
2021/01/20 06:38:53;;;;;;;8.03;4.53;;;0.40;99.90;;;;;;1907946;75;21439;-73
2021/01/20 06:41:20;;;;;;;11.75;4.92;;;0.30;99.90;;;;;;1907947;74;21064;-74
2021/01/20 06:43:46;;;;;;;7.10;4.25;;;0.40;99.90;;;;;;1907859;74;21054;-72
2021/01/20 06:46:12;;;;;;;6.28;4.10;;;0.30;99.90;;;;;;1907911;75;21046;-72
2021/01/20 06:48:38;;;;;;;7.55;4.62;;;0.30;99.90;;;;;;1908116;75;21128;-73
2021/01/20 06:51:04;;;;;;;7.83;3.52;;;0.30;99.90;;;;;;1907966;75;21115;-72
2021/01/20 06:53:30;;;;;;;7.08;3.67;;;0.30;99.90;;;;;;1908012;75;21057;-74
2021/01/20 06:55:56;;;;;;;9.25;4.50;;;0.40;99.90;;;;;;1907940;74;21046;-72
2021/01/20 06:58:24;;;;;;;5.92;4.10;;;0.40;99.90;;;;;;1907968;75;21022;-73
2021/01/20 07:00:50;;;;;;;8.10;4.55;;;0.40;99.90;;;;;;1907929;75;21066;-73
2021/01/20 07:03:16;;;;;;;7.62;4.58;;;0.30;99.90;;;;;;1907976;74;21058;-72
2021/01/20 07:05:45;;;;;;;8.13;4.53;;;0.30;99.90;;;;;;1908022;75;21017;-72
2021/01/20 07:08:10;;;;;;;10.00;5.00;;;0.40;99.90;;;;;;1907967;75;21078;-72
2021/01/20 07:10:36;;;;;;;9.10;4.95;;;0.50;99.90;;;;;;1907914;75;21057;-73
2021/01/20 07:13:02;;;;;;;6.92;4.87;;;0.40;99.90;;;;;;1907898;75;21019;-72
2021/01/20 07:15:28;;;;;;;7.05;4.37;;;0.50;99.90;;;;;;1907800;75;20995;-74
2021/01/20 07:17:55;;;;;;;9.05;4.85;;;0.50;99.90;;;;;;1907935;75;21061;-74
2021/01/20 07:20:21;;;;;;;9.33;4.35;;;0.60;99.90;;;;;;1908023;75;21140;-73
2021/01/20 07:22:47;;;;;;;7.70;4.95;;;0.60;99.90;;;;;;1907948;75;21174;-73
2021/01/20 07:25:13;;;;;;;9.95;4.95;;;0.50;99.90;;;;;;1908056;74;21123;-72
2021/01/20 07:27:39;;;;;;;6.80;4.58;;;0.50;99.90;;;;;;1908122;74;21054;-72
2021/01/20 07:30:05;;;;;;;5.78;3.85;;;0.50;99.90;;;;;;1907990;75;21065;-73
2021/01/20 07:32:31;;;;;;;10.75;4.67;;;0.60;99.90;;;;;;1907966;75;21446;-72
2021/01/20 07:34:57;;;;;;;8.70;4.67;;;0.60;99.90;;;;;;1907999;75;21535;-73
2021/01/20 07:37:24;;;;;;;15.00;4.35;;;0.70;99.90;;;;;;1908079;75;21053;-73
2021/01/20 07:39:50;;;;;;;5.87;3.87;;;0.80;99.90;;;;;;1908106;75;21006;-74
2021/01/20 07:42:17;;;;;;;9.70;5.10;;;0.80;99.90;;;;;;1907842;75;21082;-73
2021/01/20 07:44:43;;;;;;;10.70;4.45;;;0.90;99.90;;;;;;1908193;75;21048;-73
2021/01/20 07:47:09;;;;;;;8.23;4.35;;;1.00;99.90;;;;;;1908704;75;21026;-73
2021/01/20 07:49:36;;;;;;;16.02;5.45;;;1.00;99.90;;;;;;1908258;75;21087;-73
2021/01/20 07:52:02;;;;;;;10.20;4.62;;;1.10;99.90;;;;;;1908243;74;21083;-74
2021/01/20 07:54:29;;;;;;;10.95;4.90;;;1.00;99.90;;;;;;1907893;75;21132;-73
2021/01/20 07:56:55;;;;;;;9.10;5.12;;;1.00;99.90;;;;;;1908025;75;21030;-72
2021/01/20 07:59:21;;;;;;;11.88;5.28;;;1.10;99.90;;;;;;1908014;75;21127;-73
2021/01/20 08:01:47;;;;;;;11.30;5.12;;;1.20;99.90;;;;;;1907986;75;21125;-72
2021/01/20 08:04:13;;;;;;;8.98;5.05;;;1.20;99.90;;;;;;1908101;75;21525;-73
2021/01/20 08:06:39;;;;;;;10.93;5.00;;;1.20;99.90;;;;;;1907972;75;21441;-71
2021/01/20 08:09:05;;;;;;;11.97;5.33;;;1.20;99.90;;;;;;1908133;75;21124;-74
2021/01/20 08:11:33;;;;;;;6.90;4.30;;;1.30;99.90;;;;;;1907991;75;21143;-73
2021/01/20 08:13:59;;;;;;;18.00;5.87;;;1.30;99.90;;;;;;1907966;75;21031;-72
2021/01/20 08:16:26;;;;;;;6.70;4.97;;;1.30;99.90;;;;;;1908111;75;21047;-73
2021/01/20 08:18:52;;;;;;;8.20;5.15;;;1.40;99.90;;;;;;1908151;74;21026;-71
2021/01/20 08:21:18;;;;;;;10.95;5.67;;;1.50;99.90;;;;;;1908270;75;21083;-72
2021/01/20 08:23:44;;;;;;;9.35;5.58;;;1.50;99.90;;;;;;1908225;75;21067;-72
2021/01/20 08:26:10;;;;;;;10.35;5.00;;;1.30;99.90;;;;;;1908246;75;21148;-72
2021/01/20 08:28:38;;;;;;;13.53;6.35;;;1.40;99.90;;;;;;1908250;75;21126;-73
2021/01/20 08:31:04;;;;;;;9.75;5.25;;;1.30;99.90;;;;;;1908156;75;21143;-73
2021/01/20 08:33:30;;;;;;;11.22;5.00;;;1.40;99.90;;;;;;1908139;75;21139;-74
2021/01/20 08:35:56;;;;;;;13.48;5.72;;;1.60;99.90;;;;;;1907767;75;21034;-73
2021/01/20 08:38:22;;;;;;;14.40;6.22;;;1.70;99.90;;;;;;1908128;75;21150;-72
2021/01/20 08:40:48;;;;;;;17.75;6.92;;;1.70;99.90;;;;;;1907848;75;21486;-72
2021/01/20 08:43:14;;;;;;;16.52;6.15;;;1.80;99.90;;;;;;1907985;75;21485;-73
2021/01/20 08:45:41;;;;;;;14.47;6.13;;;1.90;99.90;;;;;;1908059;75;21438;-72
2021/01/20 08:48:07;;;;;;;10.38;5.58;;;2.00;99.90;;;;;;1907928;75;21094;-72
2021/01/20 08:50:33;;;;;;;22.77;6.55;;;1.90;99.90;;;;;;1908241;74;21061;-74
2021/01/20 08:53:01;;;;;;;19.77;7.47;;;1.80;99.90;;;;;;1908189;74;21034;-73
2021/01/20 08:55:29;;;;;;;15.32;6.92;;;1.90;99.90;;;;;;1908430;74;21102;-74
2021/01/20 08:57:54;;;;;;;10.10;6.05;;;2.00;99.90;;;;;;1908450;74;21527;-72
2021/01/20 09:00:21;;;;;;;10.10;5.33;;;2.10;99.90;;;;;;1884052;75;21453;-73
2021/01/20 09:02:47;;;;;;;12.25;5.62;;;2.10;99.90;;;;;;1907804;75;21549;-73
2021/01/20 09:05:13;;;;;;;9.55;5.58;;;2.20;99.90;;;;;;1908007;75;21054;-73
2021/01/20 09:07:40;;;;;;;12.58;5.72;;;2.20;99.90;;;;;;1907852;75;21058;-73
2021/01/20 09:10:06;;;;;;;12.20;5.78;;;2.20;99.90;;;;;;1908203;75;21044;-74
2021/01/20 09:12:32;;;;;;;14.33;6.05;;;2.40;99.90;;;;;;1907992;74;21061;-73
2021/01/20 09:14:58;;;;;;;15.10;6.12;;;2.30;99.90;;;;;;1907978;74;21069;-74
2021/01/20 09:17:24;;;;;;;9.00;4.85;;;2.20;99.90;;;;;;1907998;75;21058;-73
2021/01/20 09:19:51;;;;;;;20.60;5.97;;;2.40;99.90;;;;;;1908007;75;21046;-74
2021/01/20 09:22:17;;;;;;;20.15;5.10;;;2.50;99.90;;;;;;1907935;74;21104;-73
2021/01/20 09:24:43;;;;;;;29.00;6.08;;;2.60;99.90;;;;;;1910625;75;21057;-73
2021/01/20 09:27:09;;;;;;;19.50;5.15;;;2.40;99.90;;;;;;1909874;75;21019;-72
2021/01/20 09:29:37;;;;;;;14.45;5.70;;;2.40;99.90;;;;;;1908186;74;21049;-73
2021/01/20 09:32:03;;;;;;;11.80;5.47;;;2.30;99.90;;;;;;1907972;75;21049;-73
2021/01/20 09:34:29;;;;;;;10.25;5.85;;;2.50;99.90;;;;;;1908072;75;21050;-73
2021/01/20 09:36:55;;;;;;;19.17;5.65;;;2.60;99.90;;;;;;1907986;75;21088;-73
2021/01/20 09:39:21;;;;;;;14.83;5.28;;;2.80;99.90;;;;;;1908268;75;21144;-73
2021/01/20 09:41:47;;;;;;;8.80;5.25;;;2.70;99.90;;;;;;1908782;75;21112;-73
2021/01/20 09:44:14;;;;;;;12.15;5.67;;;2.80;99.90;;;;;;1908748;75;21054;-73
2021/01/20 09:46:40;;;;;;;14.65;5.62;;;3.00;99.90;;;;;;1907985;74;21058;-76
2021/01/20 09:49:06;;;;;;;10.48;5.05;;;3.10;99.90;;;;;;1907840;75;21050;-73
2021/01/20 09:51:32;;;;;;;8.98;5.17;;;3.10;99.90;;;;;;1910370;75;21067;-74
2021/01/20 09:53:58;;;;;;;9.13;5.10;;;3.10;99.90;;;;;;1907875;74;21136;-74
2021/01/20 09:56:24;;;;;;;11.00;5.05;;;3.10;99.90;;;;;;1907930;75;21088;-73
2021/01/20 09:58:50;;;;;;;9.38;5.28;;;3.20;99.90;;;;;;1907938;75;21481;-74
2021/01/20 10:01:16;;;;;;;12.65;5.85;;;3.30;99.90;;;;;;1907933;74;21555;-73
2021/01/20 10:03:42;;;;;;;12.68;5.15;;;3.40;99.90;;;;;;1907887;75;21049;-74
2021/01/20 10:06:09;;;;;;;16.42;4.70;;;3.50;99.90;;;;;;1907964;75;21054;-73
2021/01/20 10:08:35;;;;;;;14.43;4.95;;;3.70;99.90;;;;;;1907925;75;21054;-74
2021/01/20 10:11:01;;;;;;;7.00;4.05;;;3.80;99.90;;;;;;1907905;75;21119;-74
2021/01/20 10:13:27;;;;;;;8.70;4.72;;;4.00;99.90;;;;;;1907927;75;21027;-73
2021/01/20 10:15:53;;;;;;;9.98;4.35;;;4.20;99.90;;;;;;1907936;75;21018;-73
2021/01/20 10:18:19;;;;;;;14.65;4.25;;;4.20;99.90;;;;;;1907914;75;21014;-73
2021/01/20 10:20:45;;;;;;;8.90;3.92;;;4.40;99.90;;;;;;1908029;75;21127;-73
2021/01/20 10:23:12;;;;;;;10.82;4.90;;;4.30;99.90;;;;;;1908085;75;21058;-73
2021/01/20 10:25:38;;;;;;;8.43;4.00;;;4.20;99.90;;;;;;1908001;75;21552;-74
2021/01/20 10:28:04;;;;;;;8.25;4.70;;;4.40;99.90;;;;;;1908030;74;21124;-74
2021/01/20 10:30:31;;;;;;;9.03;4.70;;;4.50;99.90;;;;;;1908171;74;21026;-74
2021/01/20 10:33:00;;;;;;;11.70;4.47;;;4.60;99.90;;;;;;1908065;74;21090;-73
2021/01/20 10:35:25;;;;;;;7.53;4.15;;;4.70;99.90;;;;;;1907412;75;21131;-75
2021/01/20 10:37:51;;;;;;;12.10;5.58;;;4.80;99.90;;;;;;1908058;75;21054;-75
2021/01/20 10:40:18;;;;;;;13.30;5.20;;;4.70;99.90;;;;;;1908103;75;21077;-84
2021/01/20 10:42:44;;;;;;;27.13;5.37;;;4.80;99.90;;;;;;1908216;75;21029;-81
2021/01/20 10:45:10;;;;;;;10.13;4.67;;;4.90;99.90;;;;;;1908152;75;21058;-76
2021/01/20 10:47:36;;;;;;;10.48;4.53;;;4.80;99.90;;;;;;1908162;74;21047;-75
2021/01/20 10:50:03;;;;;;;13.20;5.40;;;4.90;99.90;;;;;;1907882;75;21054;-77
2021/01/20 10:52:29;;;;;;;15.65;5.67;;;4.90;99.90;;;;;;1908054;75;21062;-75
2021/01/20 10:54:55;;;;;;;11.10;4.95;;;5.10;99.90;;;;;;1907919;75;21059;-76
2021/01/20 10:57:21;;;;;;;18.55;4.78;;;5.30;99.90;;;;;;1907919;75;21054;-76
2021/01/20 10:59:47;;;;;;;10.10;5.30;;;5.10;99.90;;;;;;1907957;75;21102;-76
2021/01/20 11:02:13;;;;;;;9.53;4.55;;;5.10;99.90;;;;;;1907964;75;21030;-76
2021/01/20 11:04:40;;;;;;;14.98;6.47;;;5.40;99.90;;;;;;1907783;75;21054;-75
2021/01/20 11:07:06;;;;;;;17.32;6.03;;;5.60;99.90;;;;;;1907837;75;21062;-75
2021/01/20 11:09:32;;;;;;;21.52;6.15;;;5.60;99.90;;;;;;1908002;75;21066;-75
2021/01/20 11:11:58;;;;;;;15.90;5.60;;;5.50;99.90;;;;;;1908647;75;21639;-75
2021/01/20 11:14:24;;;;;;;17.82;6.92;;;5.70;99.90;;;;;;1909561;75;21026;-76
2021/01/20 11:16:50;;;;;;;11.63;6.12;;;6.10;99.90;;;;;;1907739;75;21050;-74
2021/01/20 11:19:16;;;;;;;16.40;6.20;;;6.10;99.90;;;;;;1908011;75;21050;-74
2021/01/20 11:21:43;;;;;;;20.68;6.62;;;6.40;99.90;;;;;;1907827;75;21058;-75
2021/01/20 11:24:09;;;;;;;12.98;6.22;;;6.40;99.90;;;;;;1907973;75;21124;-75
2021/01/20 11:26:35;;;;;;;16.52;6.65;;;6.50;99.90;;;;;;1907945;75;21035;-75
2021/01/20 11:29:01;;;;;;;19.42;7.28;;;6.40;99.90;;;;;;1907937;75;21479;-75
2021/01/20 11:31:27;;;;;;;23.62;6.62;;;6.40;99.90;;;;;;1908016;75;21528;-75
2021/01/20 11:33:54;;;;;;;14.03;6.70;;;6.40;99.90;;;;;;1907783;74;21501;-76
2021/01/20 11:36:20;;;;;;;19.40;7.75;;;6.30;99.90;;;;;;1907987;75;21057;-73
2021/01/20 11:38:46;;;;;;;14.95;6.90;;;6.30;99.90;;;;;;1908071;75;21053;-74
2021/01/20 11:41:12;;;;;;;22.45;7.75;;;6.10;99.90;;;;;;1907745;75;21055;-76
2021/01/20 11:43:39;;;;;;;24.72;10.80;;;6.00;99.90;;;;;;1907824;75;21490;-75
2021/01/20 11:46:05;;;;;;;19.45;7.08;;;6.10;99.90;;;;;;1907890;75;21465;-76
2021/01/20 11:48:31;;;;;;;25.37;8.58;;;6.00;99.90;;;;;;1909435;74;21127;-81
2021/01/20 11:50:57;;;;;;;18.77;7.05;;;5.90;99.90;;;;;;1913401;75;21116;-74
2021/01/20 11:53:23;;;;;;;18.82;7.67;;;6.00;99.90;;;;;;1909986;75;21115;-74
2021/01/20 11:55:51;;;;;;;20.23;7.90;;;6.10;99.90;;;;;;1908065;75;21046;-74
2021/01/20 11:58:17;;;;;;;11.93;7.03;;;6.10;99.90;;;;;;1912494;74;21483;-72
2021/01/20 12:00:43;;;;;;;20.23;9.70;;;6.20;99.90;;;;;;1910106;74;21473;-72
2021/01/20 12:03:09;;;;;;;20.48;9.43;;;6.30;99.90;;;;;;1910485;74;21066;-71
2021/01/20 12:05:35;;;;;;;23.35;7.53;;;6.50;99.90;;;;;;1910101;74;21058;-72
2021/01/20 12:08:02;;;;;;;22.27;8.08;;;6.60;99.90;;;;;;1907983;74;21054;-71
2021/01/20 12:10:28;;;;;;;12.07;5.92;;;6.70;99.90;;;;;;1910056;74;21178;-72
2021/01/20 12:12:54;;;;;;;21.40;7.05;;;6.90;99.90;;;;;;1910476;75;21057;-72
2021/01/20 12:15:20;;;;;;;18.50;6.80;;;6.60;99.90;;;;;;1914450;75;21046;-73
2021/01/20 12:17:46;;;;;;;14.23;6.30;;;6.40;99.90;;;;;;1907992;74;21108;-73
2021/01/20 12:20:12;;;;;;;8.88;5.05;;;6.50;99.90;;;;;;1908084;75;21019;-75
2021/01/20 12:22:38;;;;;;;12.65;5.87;;;6.70;99.90;;;;;;1907927;75;21065;-72
2021/01/20 12:25:07;;;;;;;12.85;6.78;;;6.70;99.90;;;;;;1908160;75;21112;-73
2021/01/20 12:27:32;;;;;;;13.28;5.75;;;6.70;99.90;;;;;;1907838;74;21054;-73
2021/01/20 12:29:58;;;;;;;14.07;6.33;;;6.80;99.90;;;;;;1908005;75;21124;-73
2021/01/20 12:32:25;;;;;;;12.00;5.45;;;6.80;99.90;;;;;;1907959;75;21057;-73
2021/01/20 12:34:51;;;;;;;19.90;6.58;;;6.60;99.90;;;;;;1907909;74;21035;-74
2021/01/20 12:37:17;;;;;;;14.23;6.53;;;6.70;99.90;;;;;;1907913;75;21057;-75
2021/01/20 12:39:45;;;;;;;16.10;5.90;;;6.80;99.90;;;;;;1907944;75;21063;-74
2021/01/20 12:42:11;;;;;;;19.17;5.72;;;6.80;99.90;;;;;;1907924;74;21053;-74
2021/01/20 12:44:37;;;;;;;19.10;6.03;;;7.00;99.90;;;;;;1907969;75;21053;-73